Terminal Aerodrome Forecast
Issued by NWS

Current Version | Previous Version | Text Only | Print | Product List | Glossary On
Versions: 1 2 3 4 5 6 7 8 9 10 11 12 13 14 15 16 17 18 19 20 21 22 23 24 25 26 27 28 29 30 31 32 33 34 35 36 37 38 39 40 41
000
FTUS43 KDLH 270600 AAA
TAFHIB
TAF AMD
KHIB 270631Z 2707/2806 00000KT 5SM BR SCT030 BKN090
      TEMPO 2707/2708 1 1/2SM BR
     FM270800 VRB03KT 1 1/2SM BR SCT004 BKN010
      TEMPO 2710/2713 3/4SM BR BKN004
     FM271400 31005KT P6SM SKC
     FM272200 VRB03KT P6SM SCT050=

USA.gov is the U.S. government's official web portal to all federal, state and local government web resources and services.